sensor_id;sensor_type;location;lat;lon;timestamp;temperature;humidity
64638;HTU21D;51049;45.046;38.950;2023-05-02T00:00:16;10.27;75.21
64638;HTU21D;51049;45.046;38.950;2023-05-02T00:02:42;10.24;75.28
64638;HTU21D;51049;45.046;38.950;2023-05-02T00:05:08;10.22;75.32
64638;HTU21D;51049;45.046;38.950;2023-05-02T00:07:34;10.18;75.34
64638;HTU21D;51049;45.046;38.950;2023-05-02T00:10:01;10.16;75.36
64638;HTU21D;51049;45.046;38.950;2023-05-02T00:12:30;10.13;75.38
64638;HTU21D;51049;45.046;38.950;2023-05-02T00:14:57;10.11;75.39
64638;HTU21D;51049;45.046;38.950;2023-05-02T00:17:23;10.08;75.42
64638;HTU21D;51049;45.046;38.950;2023-05-02T00:19:48;10.07;75.46
64638;HTU21D;51049;45.046;38.950;2023-05-02T00:22:14;10.06;75.51
64638;HTU21D;51049;45.046;38.950;2023-05-02T00:24:40;10.04;75.56
64638;HTU21D;51049;45.046;38.950;2023-05-02T00:27:06;10.04;75.59
64638;HTU21D;51049;45.046;38.950;2023-05-02T00:29:33;10.01;75.63
64638;HTU21D;51049;45.046;38.950;2023-05-02T00:31:59;9.99;75.67
64638;HTU21D;51049;45.046;38.950;2023-05-02T00:34:31;9.97;75.73
64638;HTU21D;51049;45.046;38.950;2023-05-02T00:36:57;9.96;75.74
64638;HTU21D;51049;45.046;38.950;2023-05-02T00:39:23;9.94;75.79
64638;HTU21D;51049;45.046;38.950;2023-05-02T00:41:57;9.91;75.86
64638;HTU21D;51049;45.046;38.950;2023-05-02T00:44:23;9.90;75.89
64638;HTU21D;51049;45.046;38.950;2023-05-02T00:46:49;9.89;75.92
64638;HTU21D;51049;45.046;38.950;2023-05-02T00:49:16;9.88;75.97
64638;HTU21D;51049;45.046;38.950;2023-05-02T00:51:42;9.86;75.99
64638;HTU21D;51049;45.046;38.950;2023-05-02T00:54:08;9.88;76.03
64638;HTU21D;51049;45.046;38.950;2023-05-02T00:56:35;9.89;76.05
64638;HTU21D;51049;45.046;38.950;2023-05-02T00:59:02;9.89;76.08
64638;HTU21D;51049;45.046;38.950;2023-05-02T01:09:56;9.89;76.08
64638;HTU21D;51049;45.046;38.950;2023-05-02T01:12:59;9.88;76.05
64638;HTU21D;51049;45.046;38.950;2023-05-02T01:15:26;9.89;75.94
64638;HTU21D;51049;45.046;38.950;2023-05-02T01:17:54;9.86;75.79
64638;HTU21D;51049;45.046;38.950;2023-05-02T01:20:23;9.89;75.78
64638;HTU21D;51049;45.046;38.950;2023-05-02T01:22:51;9.89;75.77
64638;HTU21D;51049;45.046;38.950;2023-05-02T01:25:40;9.91;75.82
64638;HTU21D;51049;45.046;38.950;2023-05-02T01:28:24;9.94;75.84
64638;HTU21D;51049;45.046;38.950;2023-05-02T01:30:52;9.96;75.81
64638;HTU21D;51049;45.046;38.950;2023-05-02T01:33:22;9.97;75.83
64638;HTU21D;51049;45.046;38.950;2023-05-02T01:35:50;9.99;75.86
64638;HTU21D;51049;45.046;38.950;2023-05-02T01:38:18;9.99;75.87
64638;HTU21D;51049;45.046;38.950;2023-05-02T01:40:46;10.00;75.89
64638;HTU21D;51049;45.046;38.950;2023-05-02T01:43:15;10.01;75.92
64638;HTU21D;51049;45.046;38.950;2023-05-02T01:45:44;10.04;75.96
64638;HTU21D;51049;45.046;38.950;2023-05-02T01:48:12;10.03;76.00
64638;HTU21D;51049;45.046;38.950;2023-05-02T01:50:40;10.04;76.05
64638;HTU21D;51049;45.046;38.950;2023-05-02T01:53:10;10.06;76.10
64638;HTU21D;51049;45.046;38.950;2023-05-02T01:55:40;10.05;76.14
64638;HTU21D;51049;45.046;38.950;2023-05-02T01:58:08;10.06;76.16
64638;HTU21D;51049;45.046;38.950;2023-05-02T02:00:36;10.07;76.20
64638;HTU21D;51049;45.046;38.950;2023-05-02T02:03:04;10.08;76.23
64638;HTU21D;51049;45.046;38.950;2023-05-02T02:05:32;10.09;76.23
64638;HTU21D;51049;45.046;38.950;2023-05-02T02:07:59;10.11;76.22
64638;HTU21D;51049;45.046;38.950;2023-05-02T02:10:28;10.11;76.24
64638;HTU21D;51049;45.046;38.950;2023-05-02T02:13:17;10.12;76.29
64638;HTU21D;51049;45.046;38.950;2023-05-02T02:15:46;10.13;76.21
64638;HTU21D;51049;45.046;38.950;2023-05-02T02:18:24;10.15;76.26
64638;HTU21D;51049;45.046;38.950;2023-05-02T02:20:52;10.15;76.19
64638;HTU21D;51049;45.046;38.950;2023-05-02T02:23:22;10.16;76.18
64638;HTU21D;51049;45.046;38.950;2023-05-02T02:25:51;10.16;76.18
64638;HTU21D;51049;45.046;38.950;2023-05-02T02:28:18;10.16;76.20
64638;HTU21D;51049;45.046;38.950;2023-05-02T02:30:44;10.15;76.24
64638;HTU21D;51049;45.046;38.950;2023-05-02T02:33:10;10.15;76.29
64638;HTU21D;51049;45.046;38.950;2023-05-02T02:35:43;10.15;76.37
64638;HTU21D;51049;45.046;38.950;2023-05-02T02:41:42;10.18;76.42
64638;HTU21D;51049;45.046;38.950;2023-05-02T02:44:25;10.21;76.38
64638;HTU21D;51049;45.046;38.950;2023-05-02T02:47:00;10.24;76.34
64638;HTU21D;51049;45.046;38.950;2023-05-02T02:52:26;10.30;76.31
64638;HTU21D;51049;45.046;38.950;2023-05-02T02:54:59;10.34;76.31
64638;HTU21D;51049;45.046;38.950;2023-05-02T02:57:38;10.38;76.30
64638;HTU21D;51049;45.046;38.950;2023-05-02T03:00:24;10.45;76.37
64638;HTU21D;51049;45.046;38.950;2023-05-02T03:02:52;10.54;76.23
64638;HTU21D;51049;45.046;38.950;2023-05-02T03:05:20;10.62;76.15
64638;HTU21D;51049;45.046;38.950;2023-05-02T03:07:47;10.66;76.09
64638;HTU21D;51049;45.046;38.950;2023-05-02T03:10:13;10.71;76.05
64638;HTU21D;51049;45.046;38.950;2023-05-02T03:12:39;10.75;76.00
64638;HTU21D;51049;45.046;38.950;2023-05-02T03:15:31;10.79;76.02
64638;HTU21D;51049;45.046;38.950;2023-05-02T03:18:06;10.83;75.90
64638;HTU21D;51049;45.046;38.950;2023-05-02T03:20:32;10.85;75.89
64638;HTU21D;51049;45.046;38.950;2023-05-02T03:23:00;10.88;75.89
64638;HTU21D;51049;45.046;38.950;2023-05-02T03:25:26;10.93;75.88
64638;HTU21D;51049;45.046;38.950;2023-05-02T03:27:52;10.94;75.86
64638;HTU21D;51049;45.046;38.950;2023-05-02T03:30:18;10.99;75.86
64638;HTU21D;51049;45.046;38.950;2023-05-02T03:32:45;11.02;75.87
64638;HTU21D;51049;45.046;38.950;2023-05-02T03:35:11;11.10;75.82
64638;HTU21D;51049;45.046;38.950;2023-05-02T03:37:42;11.15;75.73
64638;HTU21D;51049;45.046;38.950;2023-05-02T03:40:08;11.19;75.67
64638;HTU21D;51049;45.046;38.950;2023-05-02T03:42:34;11.24;75.63
64638;HTU21D;51049;45.046;38.950;2023-05-02T03:45:12;11.30;75.56
64638;HTU21D;51049;45.046;38.950;2023-05-02T03:47:38;11.33;75.51
64638;HTU21D;51049;45.046;38.950;2023-05-02T03:50:05;11.38;75.47
64638;HTU21D;51049;45.046;38.950;2023-05-02T03:52:32;11.41;75.42
64638;HTU21D;51049;45.046;38.950;2023-05-02T03:55:00;11.46;75.38
64638;HTU21D;51049;45.046;38.950;2023-05-02T03:57:31;11.47;75.34
64638;HTU21D;51049;45.046;38.950;2023-05-02T03:59:57;11.53;75.30
64638;HTU21D;51049;45.046;38.950;2023-05-02T04:02:26;11.58;75.24
64638;HTU21D;51049;45.046;38.950;2023-05-02T04:04:53;11.63;75.17
64638;HTU21D;51049;45.046;38.950;2023-05-02T04:07:22;11.68;75.12
64638;HTU21D;51049;45.046;38.950;2023-05-02T04:10:02;11.74;75.02
64638;HTU21D;51049;45.046;38.950;2023-05-02T04:12:32;11.81;74.95
64638;HTU21D;51049;45.046;38.950;2023-05-02T04:14:59;11.86;74.88
64638;HTU21D;51049;45.046;38.950;2023-05-02T04:17:28;11.94;74.81
64638;HTU21D;51049;45.046;38.950;2023-05-02T04:19:53;12.01;74.74
64638;HTU21D;51049;45.046;38.950;2023-05-02T04:22:23;12.07;74.64
64638;HTU21D;51049;45.046;38.950;2023-05-02T04:24:54;12.15;74.56
64638;HTU21D;51049;45.046;38.950;2023-05-02T04:27:21;12.22;74.50
64638;HTU21D;51049;45.046;38.950;2023-05-02T04:29:48;12.35;74.44
64638;HTU21D;51049;45.046;38.950;2023-05-02T04:32:16;12.51;74.34
64638;HTU21D;51049;45.046;38.950;2023-05-02T04:34:42;12.66;74.12
64638;HTU21D;51049;45.046;38.950;2023-05-02T04:37:09;12.76;73.97
64638;HTU21D;51049;45.046;38.950;2023-05-02T04:39:36;12.86;73.90
64638;HTU21D;51049;45.046;38.950;2023-05-02T04:42:10;12.99;73.86
64638;HTU21D;51049;45.046;38.950;2023-05-02T04:44:44;13.14;73.70
64638;HTU21D;51049;45.046;38.950;2023-05-02T04:47:10;13.26;73.55
64638;HTU21D;51049;45.046;38.950;2023-05-02T04:49:37;13.34;73.38
64638;HTU21D;51049;45.046;38.950;2023-05-02T04:52:03;13.46;73.27
64638;HTU21D;51049;45.046;38.950;2023-05-02T04:54:33;13.53;73.02
64638;HTU21D;51049;45.046;38.950;2023-05-02T04:56:59;13.56;72.88
64638;HTU21D;51049;45.046;38.950;2023-05-02T04:59:29;13.62;72.84
64638;HTU21D;51049;45.046;38.950;2023-05-02T05:01:57;13.70;72.76
64638;HTU21D;51049;45.046;38.950;2023-05-02T05:04:23;13.81;72.64
64638;HTU21D;51049;45.046;38.950;2023-05-02T05:06:49;13.91;72.52
64638;HTU21D;51049;45.046;38.950;2023-05-02T05:09:16;14.00;72.31
64638;HTU21D;51049;45.046;38.950;2023-05-02T05:11:42;14.05;72.20
64638;HTU21D;51049;45.046;38.950;2023-05-02T05:14:11;14.07;72.12
64638;HTU21D;51049;45.046;38.950;2023-05-02T05:16:40;14.04;71.99
64638;HTU21D;51049;45.046;38.950;2023-05-02T05:19:06;14.05;71.94
64638;HTU21D;51049;45.046;38.950;2023-05-02T05:21:33;14.04;71.84
64638;HTU21D;51049;45.046;38.950;2023-05-02T05:24:00;14.06;71.87
64638;HTU21D;51049;45.046;38.950;2023-05-02T05:26:27;14.10;71.72
64638;HTU21D;51049;45.046;38.950;2023-05-02T05:28:54;14.09;71.55
64638;HTU21D;51049;45.046;38.950;2023-05-02T05:31:22;14.12;71.54
64638;HTU21D;51049;45.046;38.950;2023-05-02T05:33:53;14.17;71.48
64638;HTU21D;51049;45.046;38.950;2023-05-02T05:36:20;14.23;71.38
64638;HTU21D;51049;45.046;38.950;2023-05-02T05:38:46;14.26;71.22
64638;HTU21D;51049;45.046;38.950;2023-05-02T05:41:13;14.33;71.13
64638;HTU21D;51049;45.046;38.950;2023-05-02T05:43:44;14.37;71.05
64638;HTU21D;51049;45.046;38.950;2023-05-02T05:46:10;14.41;70.94
64638;HTU21D;51049;45.046;38.950;2023-05-02T05:48:37;14.42;70.82
64638;HTU21D;51049;45.046;38.950;2023-05-02T05:51:04;14.49;70.68
64638;HTU21D;51049;45.046;38.950;2023-05-02T05:53:31;14.49;70.60
64638;HTU21D;51049;45.046;38.950;2023-05-02T05:55:57;14.51;70.47
64638;HTU21D;51049;45.046;38.950;2023-05-02T05:58:24;14.54;70.45
64638;HTU21D;51049;45.046;38.950;2023-05-02T06:00:52;14.58;70.30
64638;HTU21D;51049;45.046;38.950;2023-05-02T06:03:18;14.58;70.23
64638;HTU21D;51049;45.046;38.950;2023-05-02T06:05:44;14.60;70.24
64638;HTU21D;51049;45.046;38.950;2023-05-02T06:08:10;14.63;70.18
64638;HTU21D;51049;45.046;38.950;2023-05-02T06:10:36;14.65;70.11
64638;HTU21D;51049;45.046;38.950;2023-05-02T06:13:03;14.68;70.12
64638;HTU21D;51049;45.046;38.950;2023-05-02T06:15:33;14.73;70.02
64638;HTU21D;51049;45.046;38.950;2023-05-02T06:18:00;14.73;69.81
64638;HTU21D;51049;45.046;38.950;2023-05-02T06:20:26;14.75;69.71
64638;HTU21D;51049;45.046;38.950;2023-05-02T06:22:52;14.75;69.74
64638;HTU21D;51049;45.046;38.950;2023-05-02T06:25:18;14.72;69.74
64638;HTU21D;51049;45.046;38.950;2023-05-02T06:27:44;14.78;69.77
64638;HTU21D;51049;45.046;38.950;2023-05-02T06:30:10;14.81;69.66
64638;HTU21D;51049;45.046;38.950;2023-05-02T06:32:36;14.85;69.53
64638;HTU21D;51049;45.046;38.950;2023-05-02T06:35:02;14.88;69.36
64638;HTU21D;51049;45.046;38.950;2023-05-02T06:37:32;14.93;69.32
64638;HTU21D;51049;45.046;38.950;2023-05-02T06:39:58;15.00;69.20
64638;HTU21D;51049;45.046;38.950;2023-05-02T06:42:24;15.08;68.97
64638;HTU21D;51049;45.046;38.950;2023-05-02T06:44:50;15.13;68.78
64638;HTU21D;51049;45.046;38.950;2023-05-02T06:47:16;15.21;68.71
64638;HTU21D;51049;45.046;38.950;2023-05-02T06:49:42;15.28;68.48
64638;HTU21D;51049;45.046;38.950;2023-05-02T06:52:08;15.38;68.27
64638;HTU21D;51049;45.046;38.950;2023-05-02T06:54:34;15.53;68.23
64638;HTU21D;51049;45.046;38.950;2023-05-02T06:57:00;15.69;68.08
64638;HTU21D;51049;45.046;38.950;2023-05-02T06:59:27;15.83;67.84
64638;HTU21D;51049;45.046;38.950;2023-05-02T07:01:52;15.95;67.76
64638;HTU21D;51049;45.046;38.950;2023-05-02T07:04:18;16.00;67.39
64638;HTU21D;51049;45.046;38.950;2023-05-02T07:06:45;16.01;67.36
64638;HTU21D;51049;45.046;38.950;2023-05-02T07:09:11;16.05;67.32
64638;HTU21D;51049;45.046;38.950;2023-05-02T07:11:37;16.12;67.16
64638;HTU21D;51049;45.046;38.950;2023-05-02T07:14:03;16.17;67.10
64638;HTU21D;51049;45.046;38.950;2023-05-02T07:16:29;16.34;66.99
64638;HTU21D;51049;45.046;38.950;2023-05-02T07:18:55;16.52;66.65
64638;HTU21D;51049;45.046;38.950;2023-05-02T07:21:21;16.65;66.36
64638;HTU21D;51049;45.046;38.950;2023-05-02T07:23:47;16.69;66.19
64638;HTU21D;51049;45.046;38.950;2023-05-02T07:26:13;16.66;66.03
64638;HTU21D;51049;45.046;38.950;2023-05-02T07:28:39;16.60;65.78
64638;HTU21D;51049;45.046;38.950;2023-05-02T07:31:05;16.46;65.51
64638;HTU21D;51049;45.046;38.950;2023-05-02T07:33:30;16.33;65.63
64638;HTU21D;51049;45.046;38.950;2023-05-02T07:35:56;16.24;65.56
64638;HTU21D;51049;45.046;38.950;2023-05-02T07:38:22;16.12;65.49
64638;HTU21D;51049;45.046;38.950;2023-05-02T07:40:48;16.05;65.34
64638;HTU21D;51049;45.046;38.950;2023-05-02T07:43:14;16.02;65.29
64638;HTU21D;51049;45.046;38.950;2023-05-02T07:45:41;16.04;65.18
64638;HTU21D;51049;45.046;38.950;2023-05-02T07:48:06;16.07;64.85
64638;HTU21D;51049;45.046;38.950;2023-05-02T07:50:32;16.08;64.62
64638;HTU21D;51049;45.046;38.950;2023-05-02T07:52:58;16.14;64.52
64638;HTU21D;51049;45.046;38.950;2023-05-02T07:55:25;16.15;64.26
64638;HTU21D;51049;45.046;38.950;2023-05-02T07:57:55;16.16;64.10
64638;HTU21D;51049;45.046;38.950;2023-05-02T08:00:21;16.14;63.98
64638;HTU21D;51049;45.046;38.950;2023-05-02T08:02:47;16.17;63.58
64638;HTU21D;51049;45.046;38.950;2023-05-02T08:05:13;16.28;63.52
64638;HTU21D;51049;45.046;38.950;2023-05-02T08:07:39;16.37;62.70
64638;HTU21D;51049;45.046;38.950;2023-05-02T08:10:05;16.40;62.13
64638;HTU21D;51049;45.046;38.950;2023-05-02T08:12:31;16.40;62.21
64638;HTU21D;51049;45.046;38.950;2023-05-02T08:14:57;16.48;62.06
64638;HTU21D;51049;45.046;38.950;2023-05-02T08:17:23;16.60;62.07
64638;HTU21D;51049;45.046;38.950;2023-05-02T08:19:49;16.77;61.87
64638;HTU21D;51049;45.046;38.950;2023-05-02T08:22:15;16.93;61.43
64638;HTU21D;51049;45.046;38.950;2023-05-02T08:24:41;17.10;61.30
64638;HTU21D;51049;45.046;38.950;2023-05-02T08:27:07;17.18;60.51
64638;HTU21D;51049;45.046;38.950;2023-05-02T08:29:33;17.22;60.93
64638;HTU21D;51049;45.046;38.950;2023-05-02T08:31:59;17.35;61.02
64638;HTU21D;51049;45.046;38.950;2023-05-02T08:34:25;17.43;60.72
64638;HTU21D;51049;45.046;38.950;2023-05-02T08:36:51;17.43;60.38
64638;HTU21D;51049;45.046;38.950;2023-05-02T08:39:17;17.40;60.60
64638;HTU21D;51049;45.046;38.950;2023-05-02T08:41:43;17.47;60.63
64638;HTU21D;51049;45.046;38.950;2023-05-02T08:44:10;17.53;60.57
64638;HTU21D;51049;45.046;38.950;2023-05-02T08:46:40;17.55;60.13
64638;HTU21D;51049;45.046;38.950;2023-05-02T08:49:06;17.60;60.15
64638;HTU21D;51049;45.046;38.950;2023-05-02T08:51:34;17.65;59.81
64638;HTU21D;51049;45.046;38.950;2023-05-02T08:54:01;17.58;59.33
64638;HTU21D;51049;45.046;38.950;2023-05-02T08:56:28;17.50;59.61
64638;HTU21D;51049;45.046;38.950;2023-05-02T08:58:54;17.45;59.67
64638;HTU21D;51049;45.046;38.950;2023-05-02T09:01:22;17.39;59.44
64638;HTU21D;51049;45.046;38.950;2023-05-02T09:03:49;17.36;59.36
64638;HTU21D;51049;45.046;38.950;2023-05-02T09:06:20;17.33;59.12
64638;HTU21D;51049;45.046;38.950;2023-05-02T09:08:48;17.24;58.98
64638;HTU21D;51049;45.046;38.950;2023-05-02T09:11:15;17.19;59.19
64638;HTU21D;51049;45.046;38.950;2023-05-02T09:16:15;17.08;58.42
64638;HTU21D;51049;45.046;38.950;2023-05-02T09:18:46;16.90;58.99
64638;HTU21D;51049;45.046;38.950;2023-05-02T09:21:17;16.76;59.51
64638;HTU21D;51049;45.046;38.950;2023-05-02T09:23:45;16.67;59.86
64638;HTU21D;51049;45.046;38.950;2023-05-02T09:26:28;16.58;59.83
64638;HTU21D;51049;45.046;38.950;2023-05-02T09:29:01;16.51;59.96
64638;HTU21D;51049;45.046;38.950;2023-05-02T09:31:32;16.55;60.08
64638;HTU21D;51049;45.046;38.950;2023-05-02T09:34:11;16.66;60.09
64638;HTU21D;51049;45.046;38.950;2023-05-02T09:36:42;16.78;59.94
64638;HTU21D;51049;45.046;38.950;2023-05-02T09:39:20;16.87;59.74
64638;HTU21D;51049;45.046;38.950;2023-05-02T09:41:46;17.03;59.67
64638;HTU21D;51049;45.046;38.950;2023-05-02T09:44:18;17.26;59.46
64638;HTU21D;51049;45.046;38.950;2023-05-02T09:46:49;17.52;59.28
64638;HTU21D;51049;45.046;38.950;2023-05-02T09:49:16;17.76;58.58
64638;HTU21D;51049;45.046;38.950;2023-05-02T09:51:46;17.99;58.32
64638;HTU21D;51049;45.046;38.950;2023-05-02T09:54:13;18.20;57.88
64638;HTU21D;51049;45.046;38.950;2023-05-02T09:56:55;18.29;57.35
64638;HTU21D;51049;45.046;38.950;2023-05-02T09:59:21;18.37;57.18
64638;HTU21D;51049;45.046;38.950;2023-05-02T10:02:01;18.43;56.78
64638;HTU21D;51049;45.046;38.950;2023-05-02T10:04:29;18.48;56.63
64638;HTU21D;51049;45.046;38.950;2023-05-02T10:06:56;18.49;56.19
64638;HTU21D;51049;45.046;38.950;2023-05-02T10:09:24;18.41;55.92
64638;HTU21D;51049;45.046;38.950;2023-05-02T10:11:52;18.29;55.98
64638;HTU21D;51049;45.046;38.950;2023-05-02T10:14:24;18.26;55.26
64638;HTU21D;51049;45.046;38.950;2023-05-02T10:16:59;18.17;55.21
64638;HTU21D;51049;45.046;38.950;2023-05-02T10:20:04;18.12;55.36
64638;HTU21D;51049;45.046;38.950;2023-05-02T10:22:32;18.14;55.14
64638;HTU21D;51049;45.046;38.950;2023-05-02T10:24:59;18.09;54.35
64638;HTU21D;51049;45.046;38.950;2023-05-02T10:27:28;17.97;53.78
64638;HTU21D;51049;45.046;38.950;2023-05-02T10:29:57;17.84;53.59
64638;HTU21D;51049;45.046;38.950;2023-05-02T10:32:26;17.76;53.30
64638;HTU21D;51049;45.046;38.950;2023-05-02T10:34:55;17.74;53.46
64638;HTU21D;51049;45.046;38.950;2023-05-02T10:37:23;17.80;53.49
64638;HTU21D;51049;45.046;38.950;2023-05-02T10:39:50;17.97;53.42
64638;HTU21D;51049;45.046;38.950;2023-05-02T10:42:18;18.14;53.16
64638;HTU21D;51049;45.046;38.950;2023-05-02T10:44:45;18.35;52.20
64638;HTU21D;51049;45.046;38.950;2023-05-02T10:47:21;18.49;51.98
64638;HTU21D;51049;45.046;38.950;2023-05-02T10:49:58;18.63;51.82
64638;HTU21D;51049;45.046;38.950;2023-05-02T10:52:36;18.72;51.59
64638;HTU21D;51049;45.046;38.950;2023-05-02T10:55:21;18.92;51.50
64638;HTU21D;51049;45.046;38.950;2023-05-02T11:00:26;19.09;50.82
64638;HTU21D;51049;45.046;38.950;2023-05-02T11:02:53;19.07;50.88
64638;HTU21D;51049;45.046;38.950;2023-05-02T11:05:20;18.96;49.94
64638;HTU21D;51049;45.046;38.950;2023-05-02T11:07:46;18.85;50.34
64638;HTU21D;51049;45.046;38.950;2023-05-02T11:15:15;18.67;50.70
64638;HTU21D;51049;45.046;38.950;2023-05-02T11:18:05;18.66;50.66
64638;HTU21D;51049;45.046;38.950;2023-05-02T11:20:35;18.53;50.95
64638;HTU21D;51049;45.046;38.950;2023-05-02T11:25:56;18.24;50.94
64638;HTU21D;51049;45.046;38.950;2023-05-02T11:28:42;18.00;51.49
64638;HTU21D;51049;45.046;38.950;2023-05-02T11:34:01;17.83;52.43
64638;HTU21D;51049;45.046;38.950;2023-05-02T11:36:31;17.82;52.88
64638;HTU21D;51049;45.046;38.950;2023-05-02T11:39:01;17.81;53.16
64638;HTU21D;51049;45.046;38.950;2023-05-02T11:41:41;17.78;53.46
64638;HTU21D;51049;45.046;38.950;2023-05-02T11:44:07;17.67;53.67
64638;HTU21D;51049;45.046;38.950;2023-05-02T11:46:36;17.55;54.04
64638;HTU21D;51049;45.046;38.950;2023-05-02T11:49:02;17.43;54.13
64638;HTU21D;51049;45.046;38.950;2023-05-02T11:51:29;17.31;54.51
64638;HTU21D;51049;45.046;38.950;2023-05-02T11:53:56;17.32;54.88
64638;HTU21D;51049;45.046;38.950;2023-05-02T11:56:23;17.31;55.09
64638;HTU21D;51049;45.046;38.950;2023-05-02T11:58:59;17.31;55.26
64638;HTU21D;51049;45.046;38.950;2023-05-02T12:01:25;17.35;55.23
64638;HTU21D;51049;45.046;38.950;2023-05-02T12:04:05;17.39;55.30
64638;HTU21D;51049;45.046;38.950;2023-05-02T12:06:34;17.49;55.20
64638;HTU21D;51049;45.046;38.950;2023-05-02T12:09:13;17.53;55.04
64638;HTU21D;51049;45.046;38.950;2023-05-02T12:11:41;17.59;54.71
64638;HTU21D;51049;45.046;38.950;2023-05-02T12:14:07;17.68;54.49
64638;HTU21D;51049;45.046;38.950;2023-05-02T12:16:33;17.80;54.41
64638;HTU21D;51049;45.046;38.950;2023-05-02T12:18:59;17.93;54.25
64638;HTU21D;51049;45.046;38.950;2023-05-02T12:21:27;18.07;54.12
64638;HTU21D;51049;45.046;38.950;2023-05-02T12:23:55;18.22;54.02
64638;HTU21D;51049;45.046;38.950;2023-05-02T12:26:22;18.39;53.33
64638;HTU21D;51049;45.046;38.950;2023-05-02T12:28:56;18.42;53.04
64638;HTU21D;51049;45.046;38.950;2023-05-02T12:31:27;18.58;53.39
64638;HTU21D;51049;45.046;38.950;2023-05-02T12:33:55;19.29;52.28
64638;HTU21D;51049;45.046;38.950;2023-05-02T12:36:24;20.20;51.47
64638;HTU21D;51049;45.046;38.950;2023-05-02T12:38:54;21.03;48.14
64638;HTU21D;51049;45.046;38.950;2023-05-02T12:41:31;21.48;48.55
64638;HTU21D;51049;45.046;38.950;2023-05-02T12:43:58;22.02;46.17
64638;HTU21D;51049;45.046;38.950;2023-05-02T12:46:25;22.77;45.38
64638;HTU21D;51049;45.046;38.950;2023-05-02T12:49:06;23.53;43.31
64638;HTU21D;51049;45.046;38.950;2023-05-02T12:51:34;23.92;42.87
64638;HTU21D;51049;45.046;38.950;2023-05-02T12:54:01;23.69;41.57
64638;HTU21D;51049;45.046;38.950;2023-05-02T12:56:28;22.87;42.39
64638;HTU21D;51049;45.046;38.950;2023-05-02T12:58:57;22.13;43.79
64638;HTU21D;51049;45.046;38.950;2023-05-02T13:01:28;21.57;44.68
64638;HTU21D;51049;45.046;38.950;2023-05-02T13:03:54;21.54;44.87
64638;HTU21D;51049;45.046;38.950;2023-05-02T13:06:20;22.10;44.96
64638;HTU21D;51049;45.046;38.950;2023-05-02T13:08:46;22.93;42.53
64638;HTU21D;51049;45.046;38.950;2023-05-02T13:11:12;23.25;41.81
64638;HTU21D;51049;45.046;38.950;2023-05-02T13:13:38;23.47;41.17
64638;HTU21D;51049;45.046;38.950;2023-05-02T13:16:04;23.50;39.57
64638;HTU21D;51049;45.046;38.950;2023-05-02T13:18:30;23.52;39.77
64638;HTU21D;51049;45.046;38.950;2023-05-02T13:20:56;23.80;40.06
64638;HTU21D;51049;45.046;38.950;2023-05-02T13:23:22;24.01;40.29
64638;HTU21D;51049;45.046;38.950;2023-05-02T13:25:48;24.30;40.14
64638;HTU21D;51049;45.046;38.950;2023-05-02T13:28:14;24.72;39.01
64638;HTU21D;51049;45.046;38.950;2023-05-02T13:30:40;24.77;38.57
64638;HTU21D;51049;45.046;38.950;2023-05-02T13:33:06;24.64;38.33
64638;HTU21D;51049;45.046;38.950;2023-05-02T13:35:32;24.61;38.41
64638;HTU21D;51049;45.046;38.950;2023-05-02T13:37:58;24.74;37.79
64638;HTU21D;51049;45.046;38.950;2023-05-02T13:40:24;24.85;36.18
64638;HTU21D;51049;45.046;38.950;2023-05-02T13:42:50;24.62;37.14
64638;HTU21D;51049;45.046;38.950;2023-05-02T13:45:16;24.13;37.71
64638;HTU21D;51049;45.046;38.950;2023-05-02T13:47:42;23.47;37.91
64638;HTU21D;51049;45.046;38.950;2023-05-02T13:50:08;22.98;39.14
64638;HTU21D;51049;45.046;38.950;2023-05-02T13:52:34;22.38;39.56
64638;HTU21D;51049;45.046;38.950;2023-05-02T13:55:01;21.58;40.58
64638;HTU21D;51049;45.046;38.950;2023-05-02T13:57:27;20.83;41.64
64638;HTU21D;51049;45.046;38.950;2023-05-02T13:59:53;20.50;42.66
64638;HTU21D;51049;45.046;38.950;2023-05-02T14:02:19;20.53;42.36
64638;HTU21D;51049;45.046;38.950;2023-05-02T14:04:45;20.15;42.91
64638;HTU21D;51049;45.046;38.950;2023-05-02T14:07:11;19.61;43.71
64638;HTU21D;51049;45.046;38.950;2023-05-02T14:09:37;19.10;44.72
64638;HTU21D;51049;45.046;38.950;2023-05-02T14:12:03;18.83;45.74
64638;HTU21D;51049;45.046;38.950;2023-05-02T14:14:29;18.53;47.02
64638;HTU21D;51049;45.046;38.950;2023-05-02T14:16:55;18.26;48.05
64638;HTU21D;51049;45.046;38.950;2023-05-02T14:19:21;18.06;48.84
64638;HTU21D;51049;45.046;38.950;2023-05-02T14:21:47;17.85;49.76
64638;HTU21D;51049;45.046;38.950;2023-05-02T14:24:13;17.64;50.61
64638;HTU21D;51049;45.046;38.950;2023-05-02T14:26:40;17.41;51.41
64638;HTU21D;51049;45.046;38.950;2023-05-02T14:29:06;17.19;52.18
64638;HTU21D;51049;45.046;38.950;2023-05-02T14:31:33;16.90;53.36
64638;HTU21D;51049;45.046;38.950;2023-05-02T14:33:59;16.69;53.78
64638;HTU21D;51049;45.046;38.950;2023-05-02T14:36:26;16.48;54.09
64638;HTU21D;51049;45.046;38.950;2023-05-02T14:38:52;16.26;54.64
64638;HTU21D;51049;45.046;38.950;2023-05-02T14:41:18;16.10;54.91
64638;HTU21D;51049;45.046;38.950;2023-05-02T14:43:43;16.01;55.23
64638;HTU21D;51049;45.046;38.950;2023-05-02T14:46:09;15.89;55.80
64638;HTU21D;51049;45.046;38.950;2023-05-02T14:48:35;15.78;56.03
64638;HTU21D;51049;45.046;38.950;2023-05-02T14:51:02;15.74;56.31
64638;HTU21D;51049;45.046;38.950;2023-05-02T14:53:29;15.77;56.39
64638;HTU21D;51049;45.046;38.950;2023-05-02T14:55:55;15.78;56.55
64638;HTU21D;51049;45.046;38.950;2023-05-02T14:58:21;15.86;56.67
64638;HTU21D;51049;45.046;38.950;2023-05-02T15:00:47;15.86;57.01
64638;HTU21D;51049;45.046;38.950;2023-05-02T15:03:13;15.86;57.10
64638;HTU21D;51049;45.046;38.950;2023-05-02T15:05:39;15.82;57.33
64638;HTU21D;51049;45.046;38.950;2023-05-02T15:08:05;15.77;57.89
64638;HTU21D;51049;45.046;38.950;2023-05-02T15:10:35;15.60;58.44
64638;HTU21D;51049;45.046;38.950;2023-05-02T15:13:01;15.41;58.84
64638;HTU21D;51049;45.046;38.950;2023-05-02T15:15:28;15.25;59.14
64638;HTU21D;51049;45.046;38.950;2023-05-02T15:17:54;15.09;59.62
64638;HTU21D;51049;45.046;38.950;2023-05-02T15:20:20;14.96;59.69
64638;HTU21D;51049;45.046;38.950;2023-05-02T15:22:46;14.84;60.15
64638;HTU21D;51049;45.046;38.950;2023-05-02T15:25:12;14.72;60.38
64638;HTU21D;51049;45.046;38.950;2023-05-02T15:27:38;14.60;60.60
64638;HTU21D;51049;45.046;38.950;2023-05-02T15:30:04;14.47;60.93
64638;HTU21D;51049;45.046;38.950;2023-05-02T15:32:33;14.33;61.19
64638;HTU21D;51049;45.046;38.950;2023-05-02T15:34:59;14.23;61.33
64638;HTU21D;51049;45.046;38.950;2023-05-02T15:37:25;14.15;61.62
64638;HTU21D;51049;45.046;38.950;2023-05-02T15:39:51;14.07;62.12